KPBH

Details ICAO KPBH
Name Price Co
Region United States
Timezone America/Chicago (UTC-6.0)
Plans Departing 2
Arriving 2
Stats Elevation 1,497 ft / 456 m (AMSL)
Location 45.708585° -90.402526°
Runways 2
Magnetic Variation 2.283° W
Sunrise 2017-12-16 13:37:57 UTC / 2017-12-16 07:37:57 Local
Sunset 2017-12-16 22:19:32 UTC / 2017-12-16 16:19:32 Local
Advertisement - Login to hide

Runways

ID Width Length Bearing (true) Bearing (mag) Surface Threshold Offset Overrun Length
01 75 ft / 23 m 5,003 ft / 1,525 m 6.99° 9.27° Asphalt 0 ft / 0 m 0 ft / 0 m
06 75 ft / 23 m 3,944 ft / 1,202 m 58.89° 61.17° Asphalt 0 ft / 0 m 0 ft / 0 m
19 75 ft / 23 m 5,003 ft / 1,525 m 186.99° 189.27° Asphalt 0 ft / 0 m 0 ft / 0 m
24 75 ft / 23 m 3,944 ft / 1,202 m 238.90° 241.18° Asphalt 0 ft / 0 m 0 ft / 0 m

Map

Weather


0- 5 10 15 20 25 30 35+ Temperature / ° C

Clouds and Precipitation
Forecast for 2017-12-16 12:00 UTC. Updated 2 hours ago

Ground ~20,000 ft ~40,000 ft Winds

METAR

KPBH 161255Z AUTO 09005KT 10SM OVC029 M11/M13 A2982 RMK AO2 T11121132

TAF

Not found

Frequencies

Recorded 125.87 MHz AWOS 3
Approach 133.65 MHz MINNEAPOLIS APP/DEP
Unicom 122.80 MHz CTAF/UNICOM
Warning: Do not use this data for real-world aviation or navigation. No guarantee of current accuracy is given.